Albuquerque, NM (87110)

8:54 AM MDT on July 26, 2016 (GMT -0600)
Summit Park Constutition and Carlisle | | Change Station

Elev 5144 ft 35.10 °N, 106.61 °W | Updated 1 day ago

Partly Cloudy
Partly Cloudy
79 °F
Feels Like 79 °F
N
4
Wind Variable Wind from NW
Gusts mph

Today
High -- | Low -- °F
--% Chance of Precip.
Yesterday
High -- | Low -- °F
Precip. -- in
Pressure 30.02 in
Visibility 10.0 miles
Clouds Mostly Cloudy 16000 ft
Mostly Cloudy 23000 ft
Dew Point 57 °F
Humidity 47%
Rainfall in
Snow Depth Not available.
6:11 AM 8:13 PM
Waning Gibbous, 54% visible
METAR KABQ 261452Z 32007KT 10SM BKN160 BKN230 23/14 A3028 RMK AO2 SLP166 T02330144 51004
Pressure 30.02 in
Visibility 10.0 miles
Clouds Mostly Cloudy 16000 ft
Mostly Cloudy 23000 ft
Dew Point 57 °F
Humidity 47%
Rainfall in
Snow Depth Not available.
6:11 AM 8:13 PM
Waning Gibbous, 54% visible
METAR KABQ 261452Z 32007KT 10SM BKN160 BKN230 23/14 A3028 RMK AO2 SLP166 T02330144 51004

10-Day Weather Forecast

Almanac

Astronomy

Jul. 26, 2016 Rise Set
Actual Time
Civil Twilight
Nautical Twilight
Astronomical Twilight
Moon
Length of Visible Light
Length of Day
Tomorrow will be .
, % of the Moon is Illuminated

Today's Extremes

State Highs State Lows

Community

WunderPhotos

Upload Photos

1,927,594 photos uploaded!

WunderBlog® & News

Nearby

Air Quality

  Air Quality AQ Index Pollutant
Not available.

Snow Depth

Station Depth Elevation

Earthquake Activity

City Distance Mag. Time & Date
Minimum magnitude displayed is 2.5.

Coastal Water Temperatures

Place Temperature

Stations

Nearby Weather Stations

Station Location Temp. Windchill Dew Point Humidity Wind Precip. Elev Updated Type
                   

Watches & Warnings

There are currently no watches in effect.